sensor_id;sensor_type;location;lat;lon;timestamp;P1;durP1;ratioP1;P2;durP2;ratioP2
36291;SDS011;22327;51.208;6.418;2024-02-14T00:02:14;2.25;;;0.95;;
36291;SDS011;22327;51.208;6.418;2024-02-14T00:05:15;5.40;;;1.13;;
36291;SDS011;22327;51.208;6.418;2024-02-14T00:08:16;2.95;;;1.00;;
36291;SDS011;22327;51.208;6.418;2024-02-14T00:11:17;1.98;;;0.80;;
36291;SDS011;22327;51.208;6.418;2024-02-14T00:14:17;2.25;;;1.17;;
36291;SDS011;22327;51.208;6.418;2024-02-14T00:17:20;3.08;;;0.98;;
36291;SDS011;22327;51.208;6.418;2024-02-14T00:20:21;1.15;;;0.88;;
36291;SDS011;22327;51.208;6.418;2024-02-14T00:23:21;2.53;;;0.90;;
36291;SDS011;22327;51.208;6.418;2024-02-14T00:26:22;2.05;;;0.82;;
36291;SDS011;22327;51.208;6.418;2024-02-14T00:29:22;1.13;;;0.90;;
36291;SDS011;22327;51.208;6.418;2024-02-14T00:32:24;2.25;;;0.90;;
36291;SDS011;22327;51.208;6.418;2024-02-14T00:35:24;1.95;;;0.60;;
36291;SDS011;22327;51.208;6.418;2024-02-14T00:38:25;3.05;;;1.00;;
36291;SDS011;22327;51.208;6.418;2024-02-14T00:41:25;2.65;;;1.00;;
36291;SDS011;22327;51.208;6.418;2024-02-14T00:44:29;2.08;;;1.10;;
36291;SDS011;22327;51.208;6.418;2024-02-14T00:47:32;2.70;;;0.73;;
36291;SDS011;22327;51.208;6.418;2024-02-14T00:50:32;2.15;;;1.15;;
36291;SDS011;22327;51.208;6.418;2024-02-14T00:53:37;1.48;;;0.80;;
36291;SDS011;22327;51.208;6.418;2024-02-14T00:56:38;2.30;;;1.20;;
36291;SDS011;22327;51.208;6.418;2024-02-14T00:59:38;2.05;;;0.95;;
36291;SDS011;22327;51.208;6.418;2024-02-14T01:02:39;1.13;;;0.80;;
36291;SDS011;22327;51.208;6.418;2024-02-14T01:05:39;2.45;;;1.05;;
36291;SDS011;22327;51.208;6.418;2024-02-14T01:08:40;3.10;;;1.70;;
36291;SDS011;22327;51.208;6.418;2024-02-14T01:11:41;1.67;;;0.90;;
36291;SDS011;22327;51.208;6.418;2024-02-14T01:14:42;3.05;;;0.90;;
36291;SDS011;22327;51.208;6.418;2024-02-14T01:17:42;1.38;;;0.85;;
36291;SDS011;22327;51.208;6.418;2024-02-14T01:20:43;2.80;;;1.00;;
36291;SDS011;22327;51.208;6.418;2024-02-14T01:23:43;1.75;;;1.05;;
36291;SDS011;22327;51.208;6.418;2024-02-14T01:26:44;2.75;;;1.00;;
36291;SDS011;22327;51.208;6.418;2024-02-14T01:29:44;1.45;;;0.90;;
36291;SDS011;22327;51.208;6.418;2024-02-14T01:32:45;1.67;;;1.00;;
36291;SDS011;22327;51.208;6.418;2024-02-14T01:35:45;2.00;;;0.90;;
36291;SDS011;22327;51.208;6.418;2024-02-14T01:38:46;0.75;;;0.70;;
36291;SDS011;22327;51.208;6.418;2024-02-14T01:41:46;3.25;;;1.05;;
36291;SDS011;22327;51.208;6.418;2024-02-14T01:44:48;1.38;;;0.77;;
36291;SDS011;22327;51.208;6.418;2024-02-14T01:47:49;1.35;;;0.90;;
36291;SDS011;22327;51.208;6.418;2024-02-14T01:50:50;3.88;;;1.05;;
36291;SDS011;22327;51.208;6.418;2024-02-14T01:53:51;1.50;;;0.82;;
36291;SDS011;22327;51.208;6.418;2024-02-14T01:56:54;2.70;;;1.20;;
36291;SDS011;22327;51.208;6.418;2024-02-14T01:59:56;1.05;;;0.82;;
36291;SDS011;22327;51.208;6.418;2024-02-14T02:02:58;1.55;;;0.75;;
36291;SDS011;22327;51.208;6.418;2024-02-14T02:05:59;1.08;;;0.88;;
36291;SDS011;22327;51.208;6.418;2024-02-14T02:09:00;1.00;;;0.80;;
36291;SDS011;22327;51.208;6.418;2024-02-14T02:12:01;1.75;;;1.00;;
36291;SDS011;22327;51.208;6.418;2024-02-14T02:15:01;1.10;;;0.82;;
36291;SDS011;22327;51.208;6.418;2024-02-14T02:18:02;1.55;;;0.90;;
36291;SDS011;22327;51.208;6.418;2024-02-14T02:21:06;2.92;;;1.85;;
36291;SDS011;22327;51.208;6.418;2024-02-14T02:24:07;2.88;;;1.17;;
36291;SDS011;22327;51.208;6.418;2024-02-14T02:27:07;2.33;;;1.30;;
36291;SDS011;22327;51.208;6.418;2024-02-14T02:30:08;2.25;;;0.82;;
36291;SDS011;22327;51.208;6.418;2024-02-14T02:33:10;1.25;;;0.95;;
36291;SDS011;22327;51.208;6.418;2024-02-14T02:36:11;2.63;;;1.20;;
36291;SDS011;22327;51.208;6.418;2024-02-14T02:39:12;1.52;;;1.05;;
36291;SDS011;22327;51.208;6.418;2024-02-14T02:42:14;3.10;;;1.10;;
36291;SDS011;22327;51.208;6.418;2024-02-14T02:45:14;2.30;;;1.20;;
36291;SDS011;22327;51.208;6.418;2024-02-14T02:48:15;2.63;;;1.20;;
36291;SDS011;22327;51.208;6.418;2024-02-14T02:51:16;2.50;;;1.25;;
36291;SDS011;22327;51.208;6.418;2024-02-14T02:54:17;1.95;;;1.35;;
36291;SDS011;22327;51.208;6.418;2024-02-14T02:57:18;4.10;;;1.20;;
36291;SDS011;22327;51.208;6.418;2024-02-14T03:00:19;2.05;;;1.40;;
36291;SDS011;22327;51.208;6.418;2024-02-14T03:03:21;2.85;;;1.23;;
36291;SDS011;22327;51.208;6.418;2024-02-14T03:06:21;1.65;;;1.30;;
36291;SDS011;22327;51.208;6.418;2024-02-14T03:09:22;3.55;;;1.55;;
36291;SDS011;22327;51.208;6.418;2024-02-14T03:12:23;3.22;;;1.55;;
36291;SDS011;22327;51.208;6.418;2024-02-14T03:15:25;3.08;;;1.42;;
36291;SDS011;22327;51.208;6.418;2024-02-14T03:18:26;2.10;;;1.30;;
36291;SDS011;22327;51.208;6.418;2024-02-14T03:21:27;2.40;;;1.50;;
36291;SDS011;22327;51.208;6.418;2024-02-14T03:24:27;2.63;;;1.60;;
36291;SDS011;22327;51.208;6.418;2024-02-14T03:27:28;3.63;;;1.40;;
36291;SDS011;22327;51.208;6.418;2024-02-14T03:30:31;3.88;;;1.80;;
36291;SDS011;22327;51.208;6.418;2024-02-14T03:33:33;1.80;;;1.40;;
36291;SDS011;22327;51.208;6.418;2024-02-14T03:36:36;1.58;;;1.33;;
36291;SDS011;22327;51.208;6.418;2024-02-14T03:39:37;2.77;;;1.70;;
36291;SDS011;22327;51.208;6.418;2024-02-14T03:42:38;2.05;;;1.40;;
36291;SDS011;22327;51.208;6.418;2024-02-14T03:45:40;3.35;;;1.50;;
36291;SDS011;22327;51.208;6.418;2024-02-14T03:48:43;1.80;;;1.30;;
36291;SDS011;22327;51.208;6.418;2024-02-14T03:51:43;1.55;;;1.30;;
36291;SDS011;22327;51.208;6.418;2024-02-14T03:54:44;1.90;;;1.38;;
36291;SDS011;22327;51.208;6.418;2024-02-14T03:57:45;2.33;;;1.55;;
36291;SDS011;22327;51.208;6.418;2024-02-14T04:00:47;2.88;;;1.60;;
36291;SDS011;22327;51.208;6.418;2024-02-14T04:03:48;2.15;;;1.63;;
36291;SDS011;22327;51.208;6.418;2024-02-14T04:06:49;2.20;;;1.67;;
36291;SDS011;22327;51.208;6.418;2024-02-14T04:09:49;2.85;;;1.33;;
36291;SDS011;22327;51.208;6.418;2024-02-14T04:12:50;2.83;;;1.83;;
36291;SDS011;22327;51.208;6.418;2024-02-14T04:15:51;2.15;;;1.60;;
36291;SDS011;22327;51.208;6.418;2024-02-14T04:18:51;1.50;;;1.38;;
36291;SDS011;22327;51.208;6.418;2024-02-14T04:21:53;1.85;;;1.50;;
36291;SDS011;22327;51.208;6.418;2024-02-14T04:24:53;2.08;;;1.38;;
36291;SDS011;22327;51.208;6.418;2024-02-14T04:27:54;2.25;;;1.27;;
36291;SDS011;22327;51.208;6.418;2024-02-14T04:30:54;3.38;;;1.50;;
36291;SDS011;22327;51.208;6.418;2024-02-14T04:33:56;3.47;;;1.70;;
36291;SDS011;22327;51.208;6.418;2024-02-14T04:36:57;2.30;;;1.58;;
36291;SDS011;22327;51.208;6.418;2024-02-14T04:39:58;3.92;;;2.47;;
36291;SDS011;22327;51.208;6.418;2024-02-14T04:42:59;3.42;;;1.77;;
36291;SDS011;22327;51.208;6.418;2024-02-14T04:46:00;2.17;;;1.52;;
36291;SDS011;22327;51.208;6.418;2024-02-14T04:49:04;3.40;;;1.92;;
36291;SDS011;22327;51.208;6.418;2024-02-14T04:52:04;2.72;;;1.88;;
36291;SDS011;22327;51.208;6.418;2024-02-14T04:55:05;4.13;;;1.85;;
36291;SDS011;22327;51.208;6.418;2024-02-14T04:58:06;3.05;;;1.90;;
36291;SDS011;22327;51.208;6.418;2024-02-14T05:01:07;4.15;;;2.20;;
36291;SDS011;22327;51.208;6.418;2024-02-14T05:04:07;2.72;;;1.92;;
36291;SDS011;22327;51.208;6.418;2024-02-14T05:07:08;2.65;;;1.85;;
36291;SDS011;22327;51.208;6.418;2024-02-14T05:10:08;2.42;;;2.22;;
36291;SDS011;22327;51.208;6.418;2024-02-14T05:13:09;4.50;;;2.20;;
36291;SDS011;22327;51.208;6.418;2024-02-14T05:16:10;4.97;;;2.40;;
36291;SDS011;22327;51.208;6.418;2024-02-14T05:19:10;4.47;;;2.17;;
36291;SDS011;22327;51.208;6.418;2024-02-14T05:22:11;4.30;;;2.10;;
36291;SDS011;22327;51.208;6.418;2024-02-14T05:25:11;4.00;;;2.13;;
36291;SDS011;22327;51.208;6.418;2024-02-14T05:28:12;4.60;;;2.50;;
36291;SDS011;22327;51.208;6.418;2024-02-14T05:31:14;4.63;;;2.10;;
36291;SDS011;22327;51.208;6.418;2024-02-14T05:34:16;3.72;;;2.15;;
36291;SDS011;22327;51.208;6.418;2024-02-14T05:37:16;2.33;;;2.05;;
36291;SDS011;22327;51.208;6.418;2024-02-14T05:40:17;2.67;;;2.22;;
36291;SDS011;22327;51.208;6.418;2024-02-14T05:43:18;4.68;;;2.58;;
36291;SDS011;22327;51.208;6.418;2024-02-14T05:46:18;2.92;;;2.08;;
36291;SDS011;22327;51.208;6.418;2024-02-14T05:49:21;3.25;;;2.55;;
36291;SDS011;22327;51.208;6.418;2024-02-14T05:52:22;4.25;;;2.40;;
36291;SDS011;22327;51.208;6.418;2024-02-14T05:55:22;3.50;;;2.38;;
36291;SDS011;22327;51.208;6.418;2024-02-14T05:58:24;4.18;;;2.35;;
36291;SDS011;22327;51.208;6.418;2024-02-14T06:01:28;3.97;;;2.20;;
36291;SDS011;22327;51.208;6.418;2024-02-14T06:04:29;4.20;;;2.40;;
36291;SDS011;22327;51.208;6.418;2024-02-14T06:07:29;5.90;;;2.63;;
36291;SDS011;22327;51.208;6.418;2024-02-14T06:10:30;5.72;;;2.80;;
36291;SDS011;22327;51.208;6.418;2024-02-14T06:13:30;3.22;;;2.92;;
36291;SDS011;22327;51.208;6.418;2024-02-14T06:16:31;4.13;;;2.88;;
36291;SDS011;22327;51.208;6.418;2024-02-14T06:19:32;3.45;;;2.70;;
36291;SDS011;22327;51.208;6.418;2024-02-14T06:22:34;4.47;;;3.08;;
36291;SDS011;22327;51.208;6.418;2024-02-14T06:25:35;5.65;;;3.10;;
36291;SDS011;22327;51.208;6.418;2024-02-14T06:28:35;4.60;;;3.15;;
36291;SDS011;22327;51.208;6.418;2024-02-14T06:31:36;6.82;;;3.20;;
36291;SDS011;22327;51.208;6.418;2024-02-14T06:34:37;3.90;;;2.72;;
36291;SDS011;22327;51.208;6.418;2024-02-14T06:37:37;4.20;;;3.00;;
36291;SDS011;22327;51.208;6.418;2024-02-14T06:40:38;4.10;;;2.88;;
36291;SDS011;22327;51.208;6.418;2024-02-14T06:43:38;4.47;;;3.20;;
36291;SDS011;22327;51.208;6.418;2024-02-14T06:46:39;3.25;;;2.95;;
36291;SDS011;22327;51.208;6.418;2024-02-14T06:49:39;4.22;;;3.08;;
36291;SDS011;22327;51.208;6.418;2024-02-14T06:52:40;3.72;;;3.03;;
36291;SDS011;22327;51.208;6.418;2024-02-14T06:55:40;5.07;;;2.85;;
36291;SDS011;22327;51.208;6.418;2024-02-14T06:58:41;7.45;;;3.00;;
36291;SDS011;22327;51.208;6.418;2024-02-14T07:01:41;4.78;;;2.90;;
36291;SDS011;22327;51.208;6.418;2024-02-14T07:04:42;3.42;;;2.50;;
36291;SDS011;22327;51.208;6.418;2024-02-14T07:07:42;3.53;;;2.35;;
36291;SDS011;22327;51.208;6.418;2024-02-14T07:10:43;4.70;;;2.60;;
36291;SDS011;22327;51.208;6.418;2024-02-14T07:13:44;4.57;;;2.60;;
36291;SDS011;22327;51.208;6.418;2024-02-14T07:16:44;5.68;;;2.33;;
36291;SDS011;22327;51.208;6.418;2024-02-14T07:19:45;3.35;;;2.63;;
36291;SDS011;22327;51.208;6.418;2024-02-14T07:22:49;4.28;;;2.47;;
36291;SDS011;22327;51.208;6.418;2024-02-14T07:25:53;3.00;;;2.00;;
36291;SDS011;22327;51.208;6.418;2024-02-14T07:28:53;4.38;;;2.08;;
36291;SDS011;22327;51.208;6.418;2024-02-14T07:31:54;2.58;;;1.90;;
36291;SDS011;22327;51.208;6.418;2024-02-14T07:34:55;2.45;;;1.73;;
36291;SDS011;22327;51.208;6.418;2024-02-14T07:37:55;3.45;;;1.90;;
36291;SDS011;22327;51.208;6.418;2024-02-14T07:40:56;3.63;;;2.10;;
36291;SDS011;22327;51.208;6.418;2024-02-14T07:43:56;3.40;;;2.30;;
36291;SDS011;22327;51.208;6.418;2024-02-14T07:46:57;3.90;;;1.77;;
36291;SDS011;22327;51.208;6.418;2024-02-14T07:49:58;3.45;;;1.73;;
36291;SDS011;22327;51.208;6.418;2024-02-14T07:52:59;3.28;;;1.98;;
36291;SDS011;22327;51.208;6.418;2024-02-14T07:55:59;2.38;;;1.58;;
36291;SDS011;22327;51.208;6.418;2024-02-14T07:59:00;4.40;;;2.75;;
36291;SDS011;22327;51.208;6.418;2024-02-14T08:02:00;1.98;;;1.67;;
36291;SDS011;22327;51.208;6.418;2024-02-14T08:05:01;4.53;;;1.90;;
36291;SDS011;22327;51.208;6.418;2024-02-14T08:08:02;2.30;;;1.77;;
36291;SDS011;22327;51.208;6.418;2024-02-14T08:11:03;4.68;;;2.10;;
36291;SDS011;22327;51.208;6.418;2024-02-14T08:14:03;5.25;;;1.75;;
36291;SDS011;22327;51.208;6.418;2024-02-14T08:17:05;3.45;;;1.85;;
36291;SDS011;22327;51.208;6.418;2024-02-14T08:20:05;2.35;;;1.60;;
36291;SDS011;22327;51.208;6.418;2024-02-14T08:23:07;2.75;;;1.70;;
36291;SDS011;22327;51.208;6.418;2024-02-14T08:26:07;2.15;;;1.48;;
36291;SDS011;22327;51.208;6.418;2024-02-14T08:29:10;3.50;;;1.80;;
36291;SDS011;22327;51.208;6.418;2024-02-14T08:32:11;2.75;;;1.60;;
36291;SDS011;22327;51.208;6.418;2024-02-14T08:35:12;3.25;;;2.00;;
36291;SDS011;22327;51.208;6.418;2024-02-14T08:38:13;2.58;;;1.70;;
36291;SDS011;22327;51.208;6.418;2024-02-14T08:41:14;3.47;;;2.00;;
36291;SDS011;22327;51.208;6.418;2024-02-14T08:44:15;2.97;;;1.52;;
36291;SDS011;22327;51.208;6.418;2024-02-14T08:47:15;3.38;;;1.42;;
36291;SDS011;22327;51.208;6.418;2024-02-14T08:50:16;3.15;;;1.48;;
36291;SDS011;22327;51.208;6.418;2024-02-14T08:53:17;3.70;;;2.00;;
36291;SDS011;22327;51.208;6.418;2024-02-14T08:56:18;2.97;;;1.58;;
36291;SDS011;22327;51.208;6.418;2024-02-14T08:59:18;4.40;;;1.75;;
36291;SDS011;22327;51.208;6.418;2024-02-14T09:02:19;3.20;;;1.60;;
36291;SDS011;22327;51.208;6.418;2024-02-14T09:05:22;4.15;;;1.65;;
36291;SDS011;22327;51.208;6.418;2024-02-14T09:08:23;3.05;;;1.73;;
36291;SDS011;22327;51.208;6.418;2024-02-14T09:11:24;2.55;;;1.45;;
36291;SDS011;22327;51.208;6.418;2024-02-14T09:14:25;2.60;;;1.50;;
36291;SDS011;22327;51.208;6.418;2024-02-14T09:17:26;5.20;;;1.63;;
36291;SDS011;22327;51.208;6.418;2024-02-14T09:20:27;4.72;;;1.60;;
36291;SDS011;22327;51.208;6.418;2024-02-14T09:23:27;2.47;;;1.30;;
36291;SDS011;22327;51.208;6.418;2024-02-14T09:26:29;3.65;;;1.95;;
36291;SDS011;22327;51.208;6.418;2024-02-14T09:29:29;1.70;;;1.45;;
36291;SDS011;22327;51.208;6.418;2024-02-14T09:32:30;4.38;;;1.88;;
36291;SDS011;22327;51.208;6.418;2024-02-14T09:35:31;2.70;;;1.48;;
36291;SDS011;22327;51.208;6.418;2024-02-14T09:38:31;4.13;;;1.60;;
36291;SDS011;22327;51.208;6.418;2024-02-14T09:41:36;4.65;;;1.67;;
36291;SDS011;22327;51.208;6.418;2024-02-14T09:44:40;3.65;;;1.50;;
36291;SDS011;22327;51.208;6.418;2024-02-14T09:47:41;2.55;;;1.10;;
36291;SDS011;22327;51.208;6.418;2024-02-14T09:50:42;2.58;;;1.15;;
36291;SDS011;22327;51.208;6.418;2024-02-14T09:53:45;2.95;;;1.45;;
36291;SDS011;22327;51.208;6.418;2024-02-14T09:56:52;2.03;;;1.20;;
36291;SDS011;22327;51.208;6.418;2024-02-14T09:59:54;3.88;;;1.00;;
36291;SDS011;22327;51.208;6.418;2024-02-14T10:02:56;2.58;;;0.80;;
36291;SDS011;22327;51.208;6.418;2024-02-14T10:05:57;3.42;;;1.10;;
36291;SDS011;22327;51.208;6.418;2024-02-14T10:08:58;2.85;;;1.20;;
36291;SDS011;22327;51.208;6.418;2024-02-14T10:11:59;3.03;;;1.20;;
36291;SDS011;22327;51.208;6.418;2024-02-14T10:14:59;2.65;;;0.90;;
36291;SDS011;22327;51.208;6.418;2024-02-14T10:18:02;3.90;;;1.08;;
36291;SDS011;22327;51.208;6.418;2024-02-14T10:21:03;2.17;;;1.02;;
36291;SDS011;22327;51.208;6.418;2024-02-14T10:24:04;2.30;;;1.52;;
36291;SDS011;22327;51.208;6.418;2024-02-14T10:27:07;1.97;;;1.10;;
36291;SDS011;22327;51.208;6.418;2024-02-14T10:30:09;3.13;;;1.10;;
36291;SDS011;22327;51.208;6.418;2024-02-14T10:33:10;2.20;;;1.10;;
36291;SDS011;22327;51.208;6.418;2024-02-14T10:36:11;1.30;;;0.70;;
36291;SDS011;22327;51.208;6.418;2024-02-14T10:39:16;2.92;;;1.08;;
36291;SDS011;22327;51.208;6.418;2024-02-14T10:42:19;4.97;;;1.00;;
36291;SDS011;22327;51.208;6.418;2024-02-14T10:45:19;2.20;;;1.05;;
36291;SDS011;22327;51.208;6.418;2024-02-14T10:48:21;3.88;;;1.02;;
36291;SDS011;22327;51.208;6.418;2024-02-14T10:51:25;1.23;;;0.70;;
36291;SDS011;22327;51.208;6.418;2024-02-14T10:54:30;1.58;;;0.95;;
36291;SDS011;22327;51.208;6.418;2024-02-14T10:57:31;1.83;;;1.05;;
36291;SDS011;22327;51.208;6.418;2024-02-14T11:00:32;3.08;;;1.17;;
36291;SDS011;22327;51.208;6.418;2024-02-14T11:03:33;1.88;;;0.60;;
36291;SDS011;22327;51.208;6.418;2024-02-14T11:06:44;1.45;;;0.88;;
36291;SDS011;22327;51.208;6.418;2024-02-14T11:09:46;1.00;;;0.90;;
36291;SDS011;22327;51.208;6.418;2024-02-14T11:12:47;2.45;;;0.80;;
36291;SDS011;22327;51.208;6.418;2024-02-14T11:15:51;1.27;;;0.65;;
36291;SDS011;22327;51.208;6.418;2024-02-14T11:19:11;1.02;;;0.65;;
36291;SDS011;22327;51.208;6.418;2024-02-14T11:22:13;2.65;;;0.80;;
36291;SDS011;22327;51.208;6.418;2024-02-14T11:25:18;2.35;;;0.80;;
36291;SDS011;22327;51.208;6.418;2024-02-14T11:28:19;2.90;;;0.80;;
36291;SDS011;22327;51.208;6.418;2024-02-14T11:31:24;3.75;;;0.60;;
36291;SDS011;22327;51.208;6.418;2024-02-14T11:34:38;1.48;;;0.77;;
36291;SDS011;22327;51.208;6.418;2024-02-14T11:37:39;2.35;;;0.70;;
36291;SDS011;22327;51.208;6.418;2024-02-14T11:40:39;1.27;;;1.00;;
36291;SDS011;22327;51.208;6.418;2024-02-14T11:43:50;1.65;;;0.68;;
36291;SDS011;22327;51.208;6.418;2024-02-14T11:46:51;1.38;;;0.80;;
36291;SDS011;22327;51.208;6.418;2024-02-14T11:49:51;2.10;;;0.98;;
36291;SDS011;22327;51.208;6.418;2024-02-14T11:52:52;2.35;;;1.05;;
36291;SDS011;22327;51.208;6.418;2024-02-14T11:55:55;2.03;;;0.90;;
36291;SDS011;22327;51.208;6.418;2024-02-14T11:58:56;2.27;;;1.30;;
36291;SDS011;22327;51.208;6.418;2024-02-14T12:01:57;1.40;;;0.93;;
36291;SDS011;22327;51.208;6.418;2024-02-14T12:04:59;1.35;;;0.90;;
36291;SDS011;22327;51.208;6.418;2024-02-14T12:08:00;1.25;;;0.90;;
36291;SDS011;22327;51.208;6.418;2024-02-14T12:11:01;0.93;;;0.85;;
36291;SDS011;22327;51.208;6.418;2024-02-14T12:14:02;1.48;;;0.95;;
36291;SDS011;22327;51.208;6.418;2024-02-14T12:17:05;2.05;;;0.88;;
36291;SDS011;22327;51.208;6.418;2024-02-14T12:20:09;0.98;;;0.82;;
36291;SDS011;22327;51.208;6.418;2024-02-14T12:23:17;1.10;;;0.88;;
36291;SDS011;22327;51.208;6.418;2024-02-14T12:26:18;1.88;;;0.90;;
36291;SDS011;22327;51.208;6.418;2024-02-14T12:29:19;2.38;;;1.00;;
36291;SDS011;22327;51.208;6.418;2024-02-14T12:32:23;1.65;;;1.00;;
36291;SDS011;22327;51.208;6.418;2024-02-14T12:35:23;1.38;;;0.80;;
36291;SDS011;22327;51.208;6.418;2024-02-14T12:38:25;1.48;;;0.75;;
36291;SDS011;22327;51.208;6.418;2024-02-14T12:41:25;1.33;;;0.70;;
36291;SDS011;22327;51.208;6.418;2024-02-14T12:44:33;1.17;;;0.50;;
36291;SDS011;22327;51.208;6.418;2024-02-14T12:47:34;0.75;;;0.60;;
36291;SDS011;22327;51.208;6.418;2024-02-14T12:50:37;2.65;;;0.60;;
36291;SDS011;22327;51.208;6.418;2024-02-14T12:53:38;1.08;;;0.50;;
36291;SDS011;22327;51.208;6.418;2024-02-14T12:56:39;0.85;;;0.60;;
36291;SDS011;22327;51.208;6.418;2024-02-14T12:59:40;1.67;;;0.60;;
36291;SDS011;22327;51.208;6.418;2024-02-14T13:02:41;0.95;;;0.60;;
36291;SDS011;22327;51.208;6.418;2024-02-14T13:05:42;1.00;;;0.40;;
36291;SDS011;22327;51.208;6.418;2024-02-14T13:08:43;2.00;;;0.50;;
36291;SDS011;22327;51.208;6.418;2024-02-14T13:11:43;0.63;;;0.50;;
36291;SDS011;22327;51.208;6.418;2024-02-14T13:14:44;0.40;;;0.40;;
36291;SDS011;22327;51.208;6.418;2024-02-14T13:17:44;3.30;;;0.77;;
36291;SDS011;22327;51.208;6.418;2024-02-14T13:20:45;0.82;;;0.60;;
36291;SDS011;22327;51.208;6.418;2024-02-14T13:23:45;1.15;;;0.40;;
36291;SDS011;22327;51.208;6.418;2024-02-14T13:26:46;0.90;;;0.50;;
36291;SDS011;22327;51.208;6.418;2024-02-14T13:29:47;1.02;;;0.55;;
36291;SDS011;22327;51.208;6.418;2024-02-14T13:32:47;1.77;;;0.80;;
36291;SDS011;22327;51.208;6.418;2024-02-14T13:35:48;1.33;;;0.50;;
36291;SDS011;22327;51.208;6.418;2024-02-14T13:38:49;0.98;;;0.50;;
36291;SDS011;22327;51.208;6.418;2024-02-14T13:41:50;1.23;;;0.57;;
36291;SDS011;22327;51.208;6.418;2024-02-14T13:44:52;0.57;;;0.30;;
36291;SDS011;22327;51.208;6.418;2024-02-14T13:48:01;1.77;;;0.70;;
36291;SDS011;22327;51.208;6.418;2024-02-14T13:51:04;0.85;;;0.50;;
36291;SDS011;22327;51.208;6.418;2024-02-14T13:54:05;0.50;;;0.40;;
36291;SDS011;22327;51.208;6.418;2024-02-14T13:57:06;0.70;;;0.40;;
36291;SDS011;22327;51.208;6.418;2024-02-14T14:00:10;2.38;;;0.55;;
36291;SDS011;22327;51.208;6.418;2024-02-14T14:03:11;0.70;;;0.45;;
36291;SDS011;22327;51.208;6.418;2024-02-14T14:06:12;1.05;;;0.50;;
36291;SDS011;22327;51.208;6.418;2024-02-14T14:09:12;0.77;;;0.40;;
36291;SDS011;22327;51.208;6.418;2024-02-14T14:12:13;1.00;;;0.70;;
36291;SDS011;22327;51.208;6.418;2024-02-14T14:15:14;1.25;;;0.60;;
36291;SDS011;22327;51.208;6.418;2024-02-14T14:18:14;1.73;;;0.60;;
36291;SDS011;22327;51.208;6.418;2024-02-14T14:21:15;0.95;;;0.55;;
36291;SDS011;22327;51.208;6.418;2024-02-14T14:24:15;0.80;;;0.70;;
36291;SDS011;22327;51.208;6.418;2024-02-14T14:27:16;0.50;;;0.50;;
36291;SDS011;22327;51.208;6.418;2024-02-14T14:30:16;0.80;;;0.60;;
36291;SDS011;22327;51.208;6.418;2024-02-14T14:33:18;0.70;;;0.70;;
36291;SDS011;22327;51.208;6.418;2024-02-14T14:36:18;0.80;;;0.60;;
36291;SDS011;22327;51.208;6.418;2024-02-14T14:39:21;0.73;;;0.70;;
36291;SDS011;22327;51.208;6.418;2024-02-14T14:42:21;2.17;;;1.00;;
36291;SDS011;22327;51.208;6.418;2024-02-14T14:45:22;1.42;;;0.80;;
36291;SDS011;22327;51.208;6.418;2024-02-14T14:48:22;2.22;;;1.20;;
36291;SDS011;22327;51.208;6.418;2024-02-14T14:51:23;1.05;;;1.00;;
36291;SDS011;22327;51.208;6.418;2024-02-14T14:54:24;0.95;;;0.73;;
36291;SDS011;22327;51.208;6.418;2024-02-14T14:57:27;1.13;;;1.00;;
36291;SDS011;22327;51.208;6.418;2024-02-14T15:00:29;1.67;;;1.02;;
36291;SDS011;22327;51.208;6.418;2024-02-14T15:03:30;1.38;;;0.80;;
36291;SDS011;22327;51.208;6.418;2024-02-14T15:06:30;2.13;;;1.10;;
36291;SDS011;22327;51.208;6.418;2024-02-14T15:09:34;1.77;;;1.20;;
36291;SDS011;22327;51.208;6.418;2024-02-14T15:12:34;2.15;;;1.10;;
36291;SDS011;22327;51.208;6.418;2024-02-14T15:15:37;1.75;;;1.02;;
36291;SDS011;22327;51.208;6.418;2024-02-14T15:18:37;2.78;;;1.25;;
36291;SDS011;22327;51.208;6.418;2024-02-14T15:21:37;1.50;;;1.15;;
36291;SDS011;22327;51.208;6.418;2024-02-14T15:24:38;1.95;;;1.13;;
36291;SDS011;22327;51.208;6.418;2024-02-14T15:27:41;2.45;;;1.30;;
36291;SDS011;22327;51.208;6.418;2024-02-14T15:30:54;2.20;;;1.10;;
36291;SDS011;22327;51.208;6.418;2024-02-14T15:34:13;1.10;;;1.00;;
36291;SDS011;22327;51.208;6.418;2024-02-14T15:37:14;1.30;;;1.02;;
36291;SDS011;22327;51.208;6.418;2024-02-14T15:40:17;1.75;;;1.15;;
36291;SDS011;22327;51.208;6.418;2024-02-14T15:43:18;1.52;;;1.30;;
36291;SDS011;22327;51.208;6.418;2024-02-14T15:46:19;2.30;;;1.15;;
36291;SDS011;22327;51.208;6.418;2024-02-14T15:49:20;1.70;;;1.20;;
36291;SDS011;22327;51.208;6.418;2024-02-14T15:52:21;1.80;;;1.67;;
36291;SDS011;22327;51.208;6.418;2024-02-14T15:55:21;1.40;;;1.30;;
36291;SDS011;22327;51.208;6.418;2024-02-14T15:58:22;1.10;;;1.00;;
36291;SDS011;22327;51.208;6.418;2024-02-14T16:01:22;1.80;;;1.48;;
36291;SDS011;22327;51.208;6.418;2024-02-14T16:04:23;4.70;;;3.17;;
36291;SDS011;22327;51.208;6.418;2024-02-14T16:07:25;1.77;;;1.58;;
36291;SDS011;22327;51.208;6.418;2024-02-14T16:10:25;1.65;;;1.55;;
36291;SDS011;22327;51.208;6.418;2024-02-14T16:13:26;2.17;;;1.30;;
36291;SDS011;22327;51.208;6.418;2024-02-14T16:16:28;1.98;;;1.35;;
36291;SDS011;22327;51.208;6.418;2024-02-14T16:19:30;3.13;;;1.35;;
36291;SDS011;22327;51.208;6.418;2024-02-14T16:22:31;1.70;;;1.52;;
36291;SDS011;22327;51.208;6.418;2024-02-14T16:25:32;1.90;;;1.48;;
36291;SDS011;22327;51.208;6.418;2024-02-14T16:28:35;2.13;;;1.77;;
36291;SDS011;22327;51.208;6.418;2024-02-14T16:31:36;1.92;;;1.58;;
36291;SDS011;22327;51.208;6.418;2024-02-14T16:34:36;2.58;;;2.10;;
36291;SDS011;22327;51.208;6.418;2024-02-14T16:37:37;2.60;;;1.50;;
36291;SDS011;22327;51.208;6.418;2024-02-14T16:40:38;2.33;;;1.77;;
36291;SDS011;22327;51.208;6.418;2024-02-14T16:43:39;1.75;;;1.63;;
36291;SDS011;22327;51.208;6.418;2024-02-14T16:46:40;1.90;;;1.67;;
36291;SDS011;22327;51.208;6.418;2024-02-14T16:49:40;2.08;;;1.63;;
36291;SDS011;22327;51.208;6.418;2024-02-14T16:52:41;3.25;;;1.60;;
36291;SDS011;22327;51.208;6.418;2024-02-14T16:55:41;4.28;;;1.83;;
36291;SDS011;22327;51.208;6.418;2024-02-14T16:58:42;2.60;;;1.80;;
36291;SDS011;22327;51.208;6.418;2024-02-14T17:01:43;4.13;;;2.10;;
36291;SDS011;22327;51.208;6.418;2024-02-14T17:04:44;2.25;;;1.92;;
36291;SDS011;22327;51.208;6.418;2024-02-14T17:07:44;3.60;;;1.90;;
36291;SDS011;22327;51.208;6.418;2024-02-14T17:10:45;3.10;;;2.00;;
36291;SDS011;22327;51.208;6.418;2024-02-14T17:13:45;2.58;;;1.65;;
36291;SDS011;22327;51.208;6.418;2024-02-14T17:16:46;3.67;;;2.17;;
36291;SDS011;22327;51.208;6.418;2024-02-14T17:19:48;2.40;;;2.10;;
36291;SDS011;22327;51.208;6.418;2024-02-14T17:22:49;2.33;;;2.08;;
36291;SDS011;22327;51.208;6.418;2024-02-14T17:25:50;4.25;;;2.25;;
36291;SDS011;22327;51.208;6.418;2024-02-14T17:28:51;2.35;;;2.15;;
36291;SDS011;22327;51.208;6.418;2024-02-14T17:31:51;2.78;;;2.42;;
36291;SDS011;22327;51.208;6.418;2024-02-14T17:34:52;2.67;;;2.40;;
36291;SDS011;22327;51.208;6.418;2024-02-14T17:37:52;2.75;;;2.50;;
36291;SDS011;22327;51.208;6.418;2024-02-14T17:40:53;3.28;;;2.38;;
36291;SDS011;22327;51.208;6.418;2024-02-14T17:43:54;4.15;;;2.30;;
36291;SDS011;22327;51.208;6.418;2024-02-14T17:46:54;3.13;;;2.50;;
36291;SDS011;22327;51.208;6.418;2024-02-14T17:49:55;5.43;;;2.78;;
36291;SDS011;22327;51.208;6.418;2024-02-14T17:52:56;3.63;;;2.80;;
36291;SDS011;22327;51.208;6.418;2024-02-14T17:55:56;3.20;;;2.60;;
36291;SDS011;22327;51.208;6.418;2024-02-14T17:58:57;4.60;;;2.90;;
36291;SDS011;22327;51.208;6.418;2024-02-14T18:01:57;3.42;;;2.95;;
36291;SDS011;22327;51.208;6.418;2024-02-14T18:04:58;3.50;;;2.95;;
36291;SDS011;22327;51.208;6.418;2024-02-14T18:07:59;4.70;;;3.20;;
36291;SDS011;22327;51.208;6.418;2024-02-14T18:10:59;4.18;;;3.17;;
36291;SDS011;22327;51.208;6.418;2024-02-14T18:14:00;4.22;;;3.50;;